Dahlonega, Georgia
Current Conditions -  °F | °C
As of 4:53 AM on Sunday 23 Nov 2014 (Local Time) from KGVL Reporting Station
Light Rain Light Rain  
Wind Chill: 36°   Ceiling: 1100
Heat Index: 43°   Visibility: 9mi
Dew Point: 39°   Wind: 13mph
Humidity: 86%   Direction: 70°ENE
Pressure: 30.14"   Gusts: NA
Location:  34.54°N, 83.98°W
Report Text: KGVL 230953Z AUTO 07011KT 9SM -RA OVC011 06/04 A3014 RMK AO2 SLP206 P0006 T00610039
Loading
Personal Weather Stations






























Interactive Weather Map New forecast layout! Learn more

10-Day Weather Forecast

Advertisements
Track Severe Weather on mobile